createdAt,value
2022-12-31T00:03:23.972Z,14.50
2022-12-31T00:11:44.089Z,14.50
2022-12-31T00:15:54.988Z,14.50
2022-12-31T00:20:04.248Z,14.40
2022-12-31T00:24:14.157Z,14.40
2022-12-31T00:28:23.544Z,14.40
2022-12-31T00:32:34.529Z,14.40
2022-12-31T00:36:46.277Z,14.40
2022-12-31T00:40:55.386Z,14.30
2022-12-31T00:45:04.586Z,14.30
2022-12-31T00:49:15.210Z,14.20
2022-12-31T00:53:24.515Z,14.30
2022-12-31T00:57:33.728Z,14.30
2022-12-31T01:01:44.107Z,14.30
2022-12-31T01:05:54.927Z,14.30
2022-12-31T01:10:04.049Z,14.40
2022-12-31T01:14:15.592Z,14.40
2022-12-31T01:18:24.639Z,14.30
2022-12-31T01:22:35.186Z,14.40
2022-12-31T01:26:45.245Z,14.30
2022-12-31T01:30:54.481Z,14.40
2022-12-31T01:35:03.566Z,14.40
2022-12-31T01:39:14.764Z,14.40
2022-12-31T01:43:24.115Z,14.40
2022-12-31T01:47:40.219Z,14.50
2022-12-31T01:51:56.468Z,14.50
2022-12-31T01:56:08.310Z,14.60
2022-12-31T02:00:18.106Z,14.60
2022-12-31T02:04:29.559Z,14.60
2022-12-31T02:08:42.142Z,14.60
2022-12-31T02:12:53.995Z,14.60
2022-12-31T02:17:09.693Z,14.50
2022-12-31T02:21:46.449Z,14.50
2022-12-31T02:26:17.216Z,14.50
2022-12-31T02:30:29.503Z,14.50
2022-12-31T02:34:45.854Z,14.50
2022-12-31T02:38:55.813Z,14.50
2022-12-31T02:43:05.351Z,14.50
2022-12-31T02:47:40.275Z,14.60
2022-12-31T02:51:56.135Z,14.50
2022-12-31T02:56:11.410Z,14.60
2022-12-31T03:00:38.198Z,14.60
2022-12-31T03:04:53.745Z,14.60
2022-12-31T03:09:16.789Z,14.70
2022-12-31T03:13:25.947Z,14.70
2022-12-31T03:17:35.590Z,14.70
2022-12-31T03:22:03.403Z,14.70
2022-12-31T03:26:14.348Z,14.70
2022-12-31T03:30:24.637Z,14.70
2022-12-31T03:34:33.698Z,14.70
2022-12-31T03:38:48.437Z,14.80
2022-12-31T03:43:00.773Z,14.80
2022-12-31T03:47:09.945Z,14.70
2022-12-31T03:51:19.271Z,14.70
2022-12-31T03:55:30.199Z,14.70
2022-12-31T03:59:39.541Z,14.60
2022-12-31T04:03:48.677Z,14.70
2022-12-31T04:07:57.840Z,14.70
2022-12-31T04:12:09.112Z,14.70
2022-12-31T04:16:18.269Z,14.70
2022-12-31T04:20:27.480Z,14.70
2022-12-31T04:24:36.813Z,14.70
2022-12-31T04:28:47.506Z,14.60
2022-12-31T04:32:56.771Z,14.60
2022-12-31T04:37:06.058Z,14.60
2022-12-31T04:41:21.299Z,14.70
2022-12-31T04:45:31.963Z,14.70
2022-12-31T04:49:41.506Z,14.70
2022-12-31T04:53:50.690Z,14.60
2022-12-31T04:57:59.972Z,14.40
2022-12-31T05:02:10.939Z,14.40
2022-12-31T05:06:22.342Z,14.40
2022-12-31T05:10:31.698Z,14.40
2022-12-31T05:14:40.918Z,14.40
2022-12-31T05:18:52.139Z,14.40
2022-12-31T05:23:01.868Z,14.40
2022-12-31T05:27:11.077Z,14.40
2022-12-31T05:31:20.300Z,14.30
2022-12-31T05:35:31.154Z,14.30
2022-12-31T05:39:40.298Z,14.30
2022-12-31T05:43:49.461Z,14.20
2022-12-31T05:47:58.695Z,14.10
2022-12-31T05:52:09.498Z,14.10
2022-12-31T05:56:20.832Z,14.10
2022-12-31T06:00:29.937Z,14.20
2022-12-31T06:04:39.145Z,14.20
2022-12-31T06:08:53.180Z,14.20
2022-12-31T06:13:02.342Z,14.20
2022-12-31T06:17:11.621Z,14.20
2022-12-31T06:21:21.412Z,14.10
2022-12-31T06:25:32.152Z,14.10
2022-12-31T06:29:41.400Z,14.10
2022-12-31T06:33:50.869Z,14.10
2022-12-31T06:37:59.942Z,14.00
2022-12-31T06:42:10.775Z,14.00
2022-12-31T06:46:20.161Z,14.00
2022-12-31T06:50:29.439Z,14.00
2022-12-31T06:54:39.135Z,14.00
2022-12-31T06:58:50.773Z,14.00
2022-12-31T07:03:21.638Z,14.00
2022-12-31T07:07:36.617Z,14.00
2022-12-31T07:11:56.512Z,14.10
2022-12-31T07:16:22.153Z,14.00
2022-12-31T07:20:32.171Z,14.10
2022-12-31T07:24:42.154Z,14.10
2022-12-31T07:29:02.549Z,14.10
2022-12-31T07:33:35.380Z,14.10
2022-12-31T07:37:52.068Z,14.10
2022-12-31T07:42:11.125Z,14.20
2022-12-31T07:46:28.250Z,14.30
2022-12-31T07:50:39.614Z,14.30
2022-12-31T07:54:49.334Z,14.40
2022-12-31T07:59:09.904Z,14.40
2022-12-31T08:03:29.410Z,14.40
2022-12-31T08:07:47.474Z,14.40
2022-12-31T08:11:59.636Z,14.40
2022-12-31T08:16:13.124Z,14.40
2022-12-31T08:20:22.771Z,14.40
2022-12-31T08:24:40.628Z,14.50
2022-12-31T08:29:08.455Z,14.50
2022-12-31T08:33:25.749Z,14.40
2022-12-31T08:37:38.992Z,14.40
2022-12-31T08:41:52.358Z,14.40
2022-12-31T08:46:02.340Z,14.50
2022-12-31T08:50:17.799Z,14.50
2022-12-31T08:54:28.267Z,14.60
2022-12-31T08:58:47.860Z,14.60
2022-12-31T09:03:13.515Z,14.60
2022-12-31T09:07:33.949Z,14.70
2022-12-31T09:11:54.519Z,14.70
2022-12-31T09:16:14.507Z,14.70
2022-12-31T09:20:36.310Z,14.60
2022-12-31T09:24:52.438Z,14.60
2022-12-31T09:29:10.256Z,14.60
2022-12-31T09:33:36.283Z,14.60
2022-12-31T09:37:49.526Z,14.60
2022-12-31T09:42:35.011Z,14.60
2022-12-31T09:47:20.751Z,14.50
2022-12-31T09:51:33.571Z,14.60
2022-12-31T09:55:50.777Z,14.50
2022-12-31T10:00:05.457Z,14.50
2022-12-31T10:04:50.407Z,14.50
2022-12-31T10:09:28.713Z,14.60
2022-12-31T10:24:50.241Z,14.50
2022-12-31T11:05:35.495Z,14.50
2022-12-31T11:10:32.969Z,14.50
2022-12-31T11:24:43.993Z,14.60
2022-12-31T11:29:09.862Z,14.60
2022-12-31T12:02:57.324Z,14.70
2022-12-31T12:07:32.688Z,14.70
2022-12-31T12:11:44.508Z,14.70
2022-12-31T12:16:00.946Z,14.70
2022-12-31T12:20:35.913Z,14.70
2022-12-31T12:25:30.264Z,14.70
2022-12-31T12:29:54.712Z,14.70
2022-12-31T12:34:49.420Z,14.70
2022-12-31T12:39:24.232Z,14.70
2022-12-31T12:43:34.988Z,14.90
2022-12-31T12:47:46.199Z,14.90
2022-12-31T12:52:37.876Z,15.00
2022-12-31T12:57:02.044Z,15.00
2022-12-31T13:01:25.228Z,15.00
2022-12-31T13:05:49.744Z,15.00
2022-12-31T13:10:17.936Z,15.00
2022-12-31T13:14:34.953Z,15.00
2022-12-31T13:18:55.384Z,15.00
2022-12-31T13:23:15.327Z,15.00
2022-12-31T13:27:31.700Z,14.90
2022-12-31T13:31:43.971Z,14.80
2022-12-31T13:35:56.342Z,14.70
2022-12-31T13:40:15.408Z,14.70
2022-12-31T13:44:30.644Z,14.70
2022-12-31T13:48:48.561Z,14.70
2022-12-31T13:53:01.799Z,14.60
2022-12-31T13:57:19.424Z,14.70
2022-12-31T14:01:34.619Z,14.80
2022-12-31T14:10:48.648Z,14.90
2022-12-31T14:15:19.007Z,15.00
2022-12-31T14:19:41.766Z,14.90
2022-12-31T14:23:58.470Z,14.90
2022-12-31T14:28:15.491Z,15.00
2022-12-31T14:32:52.824Z,15.00
2022-12-31T14:37:08.985Z,15.00
2022-12-31T14:41:34.939Z,15.00
2022-12-31T14:45:58.176Z,15.00
2022-12-31T14:50:13.242Z,14.90
2022-12-31T14:54:29.536Z,14.80
2022-12-31T14:58:44.475Z,14.80
2022-12-31T15:02:57.189Z,14.80
2022-12-31T15:07:18.514Z,14.80
2022-12-31T15:11:42.696Z,14.80
2022-12-31T15:16:08.194Z,14.80
2022-12-31T15:20:35.240Z,14.80
2022-12-31T15:24:47.428Z,14.80
2022-12-31T15:29:01.196Z,14.80
2022-12-31T15:33:19.523Z,14.80
2022-12-31T15:37:33.920Z,14.90
2022-12-31T15:42:18.761Z,14.80
2022-12-31T15:46:20.380Z,14.70
2022-12-31T15:50:30.724Z,14.70
2022-12-31T15:54:45.598Z,14.70
2022-12-31T15:59:00.444Z,14.70
2022-12-31T16:03:22.498Z,14.70
2022-12-31T16:07:31.781Z,14.70
2022-12-31T16:11:44.837Z,14.70
2022-12-31T16:16:03.115Z,14.80
2022-12-31T16:20:27.256Z,14.80
2022-12-31T16:24:48.906Z,14.60
2022-12-31T16:29:07.608Z,14.60
2022-12-31T16:33:28.322Z,14.50
2022-12-31T16:37:38.888Z,14.50
2022-12-31T16:46:27.581Z,14.40
2022-12-31T16:50:38.100Z,14.30
2022-12-31T16:54:49.394Z,14.30
2022-12-31T16:59:04.233Z,14.30
2022-12-31T17:03:22.282Z,14.30
2022-12-31T17:07:49.809Z,14.40
2022-12-31T17:12:23.486Z,14.30
2022-12-31T17:22:40.715Z,14.30
2022-12-31T17:27:31.838Z,14.20
2022-12-31T17:32:16.588Z,14.10
2022-12-31T17:36:41.797Z,14.00
2022-12-31T17:40:57.067Z,14.00
2022-12-31T17:45:11.788Z,14.00
2022-12-31T17:49:36.744Z,14.00
2022-12-31T17:53:49.080Z,14.00
2022-12-31T17:57:59.607Z,13.90
2022-12-31T18:02:20.407Z,13.90
2022-12-31T18:06:32.199Z,13.90
2022-12-31T18:10:44.641Z,13.80
2022-12-31T18:14:56.824Z,13.80
2022-12-31T18:19:37.709Z,13.70
2022-12-31T18:23:46.734Z,13.70
2022-12-31T18:27:55.929Z,13.70
2022-12-31T18:32:05.421Z,13.70
2022-12-31T18:36:18.063Z,13.70
2022-12-31T18:40:27.531Z,13.80
2022-12-31T18:44:37.705Z,13.70
2022-12-31T18:48:50.193Z,13.80
2022-12-31T18:53:01.716Z,13.80
2022-12-31T18:57:13.157Z,13.80
2022-12-31T19:01:31.115Z,13.80
2022-12-31T19:05:40.994Z,13.90
2022-12-31T19:09:58.132Z,13.90
2022-12-31T19:14:17.258Z,13.80
2022-12-31T19:18:27.714Z,13.80
2022-12-31T19:22:37.177Z,13.90
2022-12-31T19:26:49.083Z,13.90
2022-12-31T19:30:58.455Z,13.90
2022-12-31T19:35:08.629Z,13.90
2022-12-31T19:39:19.644Z,13.90
2022-12-31T19:43:30.637Z,13.90
2022-12-31T19:47:39.888Z,13.90
2022-12-31T19:51:49.394Z,13.90
2022-12-31T19:55:59.088Z,13.90
2022-12-31T20:00:12.428Z,13.90
2022-12-31T20:04:22.021Z,14.00
2022-12-31T20:08:32.413Z,14.00
2022-12-31T20:12:47.362Z,13.90
2022-12-31T20:17:07.130Z,13.90
2022-12-31T20:21:27.254Z,13.90
2022-12-31T20:25:42.321Z,13.90
2022-12-31T20:29:52.302Z,13.90
2022-12-31T20:34:05.286Z,13.90
2022-12-31T20:38:15.459Z,13.90
2022-12-31T20:42:41.785Z,13.90
2022-12-31T20:52:45.043Z,13.90
2022-12-31T20:57:05.605Z,13.80
2022-12-31T21:01:48.165Z,13.80
2022-12-31T21:06:46.556Z,13.80
2022-12-31T21:11:45.749Z,13.90
2022-12-31T21:57:10.223Z,13.40
2022-12-31T22:01:39.165Z,13.40
2022-12-31T22:05:53.807Z,13.40
2022-12-31T22:10:07.031Z,13.40
2022-12-31T23:24:45.139Z,13.20
2022-12-31T23:34:13.280Z,13.00
2022-12-31T23:43:16.903Z,13.00
2022-12-31T23:47:43.926Z,13.00
2022-12-31T23:51:53.670Z,13.00
2022-12-31T23:56:12.871Z,13.00
